createdAt,value
2023-11-18T00:01:36.514Z,102291.25
2023-11-18T00:06:38.135Z,102287.25
2023-11-18T00:11:40.541Z,102289.72
2023-11-18T00:16:42.276Z,102291.50
2023-11-18T00:21:45.116Z,102275.63
2023-11-18T00:26:46.650Z,102281.34
2023-11-18T00:31:48.293Z,102286.56
2023-11-18T00:36:49.866Z,102281.16
2023-11-18T00:41:51.441Z,102285.28
2023-11-18T00:46:53.235Z,102278.03
2023-11-18T00:51:54.842Z,102281.81
2023-11-18T00:56:56.363Z,102300.00
2023-11-18T01:01:57.976Z,102299.25
2023-11-18T01:06:59.628Z,102288.63
2023-11-18T01:12:08.061Z,102298.28
2023-11-18T01:17:10.756Z,102309.13
2023-11-18T01:22:12.952Z,102308.94
2023-11-18T01:27:14.573Z,102292.34
2023-11-18T01:32:16.348Z,102293.53
2023-11-18T01:37:18.221Z,102281.22
2023-11-18T01:42:19.849Z,102286.16
2023-11-18T01:47:21.378Z,102288.94
2023-11-18T01:52:22.993Z,102286.91
2023-11-18T01:57:25.205Z,102286.56
2023-11-18T02:02:27.488Z,102294.63
2023-11-18T02:07:30.394Z,102291.91
2023-11-18T02:12:59.978Z,102301.25
2023-11-18T02:18:03.544Z,102301.31
2023-11-18T02:23:05.821Z,102299.38
2023-11-18T02:28:07.405Z,102293.31
2023-11-18T02:33:20.022Z,102280.22
2023-11-18T02:38:28.145Z,102279.75
2023-11-18T02:43:32.539Z,102272.75
2023-11-18T02:48:34.192Z,102266.34
2023-11-18T02:53:36.279Z,102256.50
2023-11-18T02:58:37.874Z,102263.75
2023-11-18T03:03:39.484Z,102265.06
2023-11-18T03:08:42.688Z,102272.09
2023-11-18T03:13:44.372Z,102270.03
2023-11-18T03:18:46.557Z,102257.47
2023-11-18T03:23:48.182Z,102254.34
2023-11-18T03:28:50.375Z,102237.22
2023-11-18T03:33:51.971Z,102234.31
2023-11-18T03:38:53.620Z,102215.19
2023-11-18T03:43:55.267Z,102206.75
2023-11-18T03:48:56.874Z,102198.59
2023-11-18T03:53:58.498Z,102180.72
2023-11-18T03:59:00.096Z,102178.97
2023-11-18T04:04:02.003Z,102171.94
2023-11-18T04:09:04.085Z,102157.72
2023-11-18T04:14:05.848Z,102167.56
2023-11-18T04:19:07.754Z,102149.00
2023-11-18T04:24:09.603Z,102138.28
2023-11-18T04:29:11.166Z,102132.75
2023-11-18T04:34:12.943Z,102137.09
2023-11-18T04:39:17.226Z,102122.88
2023-11-18T04:44:18.966Z,102121.03
2023-11-18T04:49:20.649Z,102118.19
2023-11-18T04:54:22.181Z,102113.00
2023-11-18T04:59:23.896Z,102138.81
2023-11-18T05:04:25.453Z,102134.16
2023-11-18T05:09:27.055Z,102114.31
2023-11-18T05:14:29.946Z,102124.31
2023-11-18T05:19:31.584Z,102117.03
2023-11-18T05:24:33.275Z,102107.06
2023-11-18T05:29:35.319Z,102111.50
2023-11-18T05:34:37.040Z,102120.50
2023-11-18T05:39:44.143Z,102102.78
2023-11-18T05:44:45.971Z,102087.72
2023-11-18T05:49:47.493Z,102093.06
2023-11-18T05:54:49.407Z,102092.59
2023-11-18T05:59:51.250Z,102073.53
2023-11-18T06:04:53.211Z,102075.59
2023-11-18T06:09:54.764Z,102072.88
2023-11-18T06:14:56.406Z,102055.75
2023-11-18T06:19:58.018Z,102031.69
2023-11-18T06:24:59.560Z,102037.53
2023-11-18T06:30:01.102Z,102072.69
2023-11-18T06:35:06.706Z,102067.13
2023-11-18T06:40:17.356Z,102073.41
2023-11-18T06:45:19.022Z,102069.72
2023-11-18T06:50:25.496Z,102064.09
2023-11-18T06:55:27.989Z,102074.41
2023-11-18T07:00:30.010Z,102067.13
2023-11-18T07:05:31.630Z,102070.38
2023-11-18T07:10:33.196Z,102065.59
2023-11-18T07:15:34.740Z,102065.19
2023-11-18T07:20:36.496Z,102041.97
2023-11-18T07:25:38.731Z,102042.03
2023-11-18T07:30:40.372Z,102032.63
2023-11-18T07:35:41.890Z,102036.28
2023-11-18T07:40:46.904Z,102023.72
2023-11-18T07:45:51.691Z,102025.69
2023-11-18T07:50:53.283Z,102023.38
2023-11-18T07:55:54.877Z,102013.16
2023-11-18T08:00:56.449Z,102018.72
2023-11-18T08:05:59.123Z,102007.94
2023-11-18T08:11:02.132Z,102008.94
2023-11-18T08:16:03.945Z,102008.28
2023-11-18T08:21:08.176Z,101990.41
2023-11-18T08:26:13.193Z,101976.78
2023-11-18T08:31:18.592Z,101961.19
2023-11-18T08:36:20.263Z,101943.63
2023-11-18T08:41:23.401Z,101935.03
2023-11-18T08:46:26.169Z,101934.38
2023-11-18T08:51:27.737Z,101928.72
2023-11-18T08:56:35.909Z,101929.16
2023-11-18T09:01:37.571Z,101919.53
2023-11-18T09:06:40.565Z,101919.09
2023-11-18T09:11:43.205Z,101908.63
2023-11-18T09:16:45.218Z,101905.19
2023-11-18T09:21:46.744Z,101884.56
2023-11-18T09:26:49.218Z,101871.66
2023-11-18T09:31:53.625Z,101863.16
2023-11-18T09:36:55.742Z,101861.31
2023-11-18T09:41:57.722Z,101872.69
2023-11-18T09:47:05.958Z,101870.31
2023-11-18T09:52:07.845Z,101860.09
2023-11-18T09:57:38.239Z,101865.75
2023-11-18T10:02:41.386Z,101861.84
2023-11-18T10:07:43.466Z,101872.84
2023-11-18T10:12:46.402Z,101871.00
2023-11-18T10:18:06.552Z,101864.03
2023-11-18T10:23:11.615Z,101841.31
2023-11-18T10:28:34.915Z,101816.44
2023-11-18T10:33:38.390Z,101797.34
2023-11-18T10:38:50.316Z,101791.06
2023-11-18T10:44:08.039Z,101787.59
2023-11-18T10:49:11.218Z,101805.31
2023-11-18T10:54:18.325Z,101778.91
2023-11-18T10:59:20.181Z,101752.56
2023-11-18T11:04:22.420Z,101720.63
2023-11-18T11:09:28.517Z,101699.31
2023-11-18T11:14:39.732Z,101690.06
2023-11-18T11:20:25.800Z,101682.34
2023-11-18T11:25:37.410Z,101656.25
2023-11-18T11:30:46.469Z,101627.91
2023-11-18T11:35:58.297Z,101638.16
2023-11-18T11:41:02.851Z,101632.38
2023-11-18T11:46:11.614Z,101594.91
2023-11-18T11:51:27.332Z,101594.66
2023-11-18T11:56:44.287Z,101596.88
2023-11-18T12:01:53.634Z,101585.25
2023-11-18T12:07:05.783Z,101568.50
2023-11-18T12:12:27.639Z,101550.06
2023-11-18T12:17:33.804Z,101535.66
2023-11-18T12:23:06.711Z,101564.47
2023-11-18T12:28:09.607Z,101558.47
2023-11-18T12:33:12.286Z,101537.78
2023-11-18T12:38:49.093Z,101518.53
2023-11-18T12:44:09.929Z,101509.66
2023-11-18T12:49:22.887Z,101479.31
2023-11-18T12:54:29.594Z,101445.78
2023-11-18T12:59:31.765Z,101423.25
2023-11-18T13:04:35.292Z,101434.22
2023-11-18T13:09:37.285Z,101407.25
2023-11-18T13:14:40.950Z,101369.53
2023-11-18T13:19:43.609Z,101356.22
2023-11-18T13:24:45.313Z,101341.41
2023-11-18T13:29:52.395Z,101342.06
2023-11-18T13:34:54.433Z,101318.63
2023-11-18T13:39:57.134Z,101300.66
2023-11-18T13:45:09.803Z,101293.44
2023-11-18T13:50:11.797Z,101287.88
2023-11-18T13:55:18.246Z,101269.63
2023-11-18T14:00:24.380Z,101265.91
2023-11-18T14:05:26.257Z,101240.09
2023-11-18T14:10:27.822Z,101230.25
2023-11-18T14:15:30.972Z,101231.25
2023-11-18T14:20:32.676Z,101232.69
2023-11-18T14:25:35.062Z,101209.84
2023-11-18T14:30:36.977Z,101203.56
2023-11-18T14:35:39.201Z,101177.16
2023-11-18T14:40:42.718Z,101173.56
2023-11-18T14:45:44.482Z,101164.47
2023-11-18T14:50:46.225Z,101113.75
2023-11-18T14:55:47.785Z,101123.75
2023-11-18T15:00:49.337Z,101125.31
2023-11-18T15:05:50.954Z,101100.06
2023-11-18T15:10:52.540Z,101104.91
2023-11-18T15:15:54.131Z,101082.09
2023-11-18T15:20:57.690Z,101080.50
2023-11-18T15:25:59.343Z,101052.22
2023-11-18T15:31:02.303Z,101039.53
2023-11-18T15:36:04.626Z,101042.09
2023-11-18T15:41:06.296Z,101044.69
2023-11-18T15:46:12.006Z,101030.09
2023-11-18T15:51:16.994Z,101006.38
2023-11-18T15:56:20.217Z,101002.66
2023-11-18T16:01:21.886Z,100983.09
2023-11-18T16:06:23.464Z,100990.94
2023-11-18T16:11:25.089Z,100986.69
2023-11-18T16:16:28.368Z,100982.38
2023-11-18T16:21:30.037Z,100974.97
2023-11-18T16:26:31.731Z,100966.25
2023-11-18T16:31:35.086Z,100952.41
2023-11-18T16:36:39.422Z,100934.25
2023-11-18T16:41:45.741Z,100929.09
2023-11-18T16:46:47.855Z,100917.81
2023-11-18T16:51:54.085Z,100921.50
2023-11-18T16:56:57.587Z,100915.78
2023-11-18T17:01:59.202Z,100925.66
2023-11-18T17:07:00.742Z,100907.63
2023-11-18T17:12:02.594Z,100923.47
2023-11-18T17:17:05.515Z,100916.31
2023-11-18T17:22:07.152Z,100901.41
2023-11-18T17:27:09.610Z,100874.09
2023-11-18T17:32:11.212Z,100881.09
2023-11-18T17:37:13.002Z,100873.25
2023-11-18T17:42:16.671Z,100837.81
2023-11-18T17:47:18.584Z,100843.47
2023-11-18T17:52:20.148Z,100823.59
2023-11-18T17:57:22.089Z,100841.84
2023-11-18T18:02:23.747Z,100861.28
2023-11-18T18:07:25.472Z,100844.06
2023-11-18T18:12:28.108Z,100838.06
2023-11-18T18:17:30.097Z,100817.84
2023-11-18T18:22:31.724Z,100815.91
2023-11-18T18:27:36.079Z,100825.31
2023-11-18T18:32:38.343Z,100833.56
2023-11-18T18:37:40.039Z,100805.06
2023-11-18T18:42:44.305Z,100816.63
2023-11-18T18:47:46.026Z,100820.06
2023-11-18T18:52:47.776Z,100813.16
2023-11-18T18:57:49.322Z,100818.22
2023-11-18T19:02:51.424Z,100804.13
2023-11-18T19:07:56.702Z,100797.50
2023-11-18T19:13:01.210Z,100784.00
2023-11-18T19:18:03.514Z,100776.28
2023-11-18T19:23:05.117Z,100768.00
2023-11-18T19:28:10.193Z,100764.88
2023-11-18T19:33:13.688Z,100763.59
2023-11-18T19:38:15.334Z,100772.81
2023-11-18T19:43:16.930Z,100762.66
2023-11-18T19:48:19.053Z,100757.31
2023-11-18T19:53:21.665Z,100742.31
2023-11-18T19:58:23.468Z,100735.88
2023-11-18T20:03:25.893Z,100739.16
2023-11-18T20:08:27.590Z,100734.38
2023-11-18T20:13:29.117Z,100741.38
2023-11-18T20:18:30.690Z,100725.25
2023-11-18T20:23:32.399Z,100717.06
2023-11-18T20:28:36.297Z,100709.06
2023-11-18T20:33:42.639Z,100710.44
2023-11-18T20:38:44.834Z,100704.16
2023-11-18T20:43:47.741Z,100710.75
2023-11-18T20:48:50.287Z,100702.75
2023-11-18T20:53:51.911Z,100691.66
2023-11-18T20:58:53.613Z,100705.09
2023-11-18T21:03:55.324Z,100690.59
2023-11-18T21:08:58.291Z,100689.47
2023-11-18T21:13:59.843Z,100684.50
2023-11-18T21:19:02.550Z,100687.03
2023-11-18T21:24:04.609Z,100682.59
2023-11-18T21:29:06.145Z,100693.84
2023-11-18T21:34:07.701Z,100677.25
2023-11-18T21:39:14.443Z,100679.06
2023-11-18T21:44:15.959Z,100669.81
2023-11-18T21:49:17.519Z,100649.31
2023-11-18T21:54:19.025Z,100639.06
2023-11-18T21:59:20.595Z,100645.69
2023-11-18T22:04:22.515Z,100650.44
2023-11-18T22:09:25.020Z,100654.19
2023-11-18T22:14:26.848Z,100663.72
2023-11-18T22:19:29.280Z,100644.75
2023-11-18T22:24:30.879Z,100651.25
2023-11-18T22:29:33.906Z,100635.69
2023-11-18T22:34:36.386Z,100646.78
2023-11-18T22:39:38.038Z,100634.81
2023-11-18T22:44:46.298Z,100635.00
2023-11-18T22:49:47.860Z,100626.41
2023-11-18T22:54:49.417Z,100636.16
2023-11-18T22:59:51.918Z,100640.38
2023-11-18T23:04:53.720Z,100644.47
2023-11-18T23:09:59.053Z,100642.41
2023-11-18T23:15:01.560Z,100637.25
2023-11-18T23:20:03.679Z,100632.91
2023-11-18T23:25:06.028Z,100631.56
2023-11-18T23:30:13.550Z,100613.81
2023-11-18T23:35:14.999Z,100598.75
2023-11-18T23:40:17.077Z,100608.34
2023-11-18T23:45:19.871Z,100606.16
2023-11-18T23:50:25.012Z,100595.38
2023-11-18T23:55:26.735Z,100589.78
